Airfield :
LOGIN :

Register | Disclaimer

   EN    FR    IT 

 










Legend :    VFR   Marginal VFR   IFR   Intensive IFR   Very Intensive IFR
Visi :
Ceiling :
>= 8 km
>= 3000ft
5 to 8 km
1000 to 3000 ft
1500m to 5 km
500 to 1000 ft
800 to 1500m
200 to 500 ft
< 800m
< 200 ft
Symbols :   Thunderstorms  Fog  Heavy snow  Heavy precipitations  Wind > 20 kt
SIGMETs :     Misc.  Thunderstorms  Icing  Turbulence  Mountain Waves  Volcanic Ashes






- Airport Elevation : 915 ft
- IATA code : LUG


LSZA - Lugano

CURRENT METAR :
  • 150550Z VRB01KT 7000 FEW005 SCT038 BKN043 14/14 Q1015 NOSIG

EXPIRED METARs :
  • 150520Z 34003KT 300V010 9000 FEW016 SCT038 BKN043 14/14 Q1015 NOSIG
  • 150450Z AUTO 36005KT 4800 -RA SCT039 BKN044 14/14 Q1016
  • 150420Z AUTO 02003KT 9999 -RA FEW011 OVC042 14/14 Q1016
  • 150350Z AUTO VRB01KT 9999 -RA FEW023 OVC045 14/14 Q1016
  • 150320Z AUTO 01002KT 9999 SCT045 OVC050 14/14 Q1017

TAF TAF LSZA
Valid from the 15 at 06:00 until the 15 at 15:00 UTC


150525Z 1506/1515 VRB03KT 9999 SCT030 BKN040
TEMPO 1506/1515 4000 SHRA
PROB40
TEMPO 1512/1515 4000 TSRA SCT030CB BKN040
ATIS : +41 22 417 40 88



MET'MAP, your aeronautical weather chart ! - Copyright ORBIFLY December 2007 - Disclaimer

ORBIFLY MET'MAP TEAM :

Programming & Development : Alexandra Zaïnal
Concept & Development : Baudouin d'Aumeries
Co-Development & Prog : Marc-Olivier Méhu
Technical & hardware support : Manuel Goepfert

Contact : metmap@orbifly.com




SOURCES & CREDITS :

   NOAA